Time;durP1;ratioP1;P1;durP2;ratioP2;P2;SDS_P1;SDS_P2;PMS_P1;PMS_P2;Temp;Humidity;BMP_temperature;BMP_pressure;BME280_temperature;BME280_humidity;BME280_pressure;Samples;Min_cycle;Max_cycle;Signal;HPM_P1;HPM_P2
2022/12/12 00:00:54;;;;;;;;;;;;;;;6.17;57.60;92535.16;5007310;28;19928;-77
2022/12/12 00:03:19;;;;;;;;;;;;;;;6.13;57.78;92542.13;5011798;28;20452;-76
2022/12/12 00:05:45;;;;;;;;;;;;;;;6.06;58.16;92544.50;5012219;28;19972;-76
2022/12/12 00:08:10;;;;;;;;;;;;;;;6.13;58.04;92547.41;5010450;28;20043;-75
2022/12/12 00:10:35;;;;;;;;;;;;;;;6.17;57.86;92549.13;4995033;28;19923;-78
2022/12/12 00:13:01;;;;;;;;;;;;;;;6.17;57.41;92562.34;5009589;28;19925;-75
2022/12/12 00:15:26;;;;;;;;;;;;;;;6.21;56.92;92565.13;5011936;28;19920;-77
2022/12/12 00:17:52;;;;;;;;;;;;;;;6.24;56.63;92559.22;5011305;28;19944;-75
2022/12/12 00:20:17;;;;;;;;;;;;;;;6.28;56.79;92565.41;5012701;28;19921;-77
2022/12/12 00:22:42;;;;;;;;;;;;;;;6.32;56.93;92566.31;5008113;28;19917;-77
2022/12/12 00:25:08;;;;;;;;;;;;;;;6.39;56.80;92563.97;5009923;28;20370;-77
2022/12/12 00:27:33;;;;;;;;;;;;;;;6.41;56.78;92573.13;5010857;28;20040;-76
2022/12/12 00:29:59;;;;;;;;;;;;;;;6.39;56.61;92579.81;5013184;28;19920;-75
2022/12/12 00:32:24;;;;;;;;;;;;;;;6.26;56.79;92572.91;5009260;28;19953;-76
2022/12/12 00:34:49;;;;;;;;;;;;;;;6.34;56.58;92580.00;5008630;28;19979;-76
2022/12/12 00:37:15;;;;;;;;;;;;;;;6.38;56.50;92575.63;4994332;28;19927;-77
2022/12/12 00:39:40;;;;;;;;;;;;;;;6.38;56.15;92578.28;5011533;28;19909;-76
2022/12/12 00:42:05;;;;;;;;;;;;;;;6.35;56.39;92577.06;5010488;28;19956;-77
2022/12/12 00:44:31;;;;;;;;;;;;;;;6.33;56.29;92573.16;5011252;28;19913;-77
2022/12/12 00:46:56;;;;;;;;;;;;;;;6.31;56.23;92578.75;5008658;28;19928;-76
2022/12/12 00:49:21;;;;;;;;;;;;;;;6.30;56.19;92577.22;5011100;28;19927;-76
2022/12/12 00:51:46;;;;;;;;;;;;;;;6.28;56.10;92581.25;5007905;28;19990;-77
2022/12/12 00:54:12;;;;;;;;;;;;;;;6.28;56.37;92591.81;5013353;28;20354;-76
2022/12/12 00:56:38;;;;;;;;;;;;;;;6.27;56.53;92585.75;5010386;28;19921;-75
2022/12/12 00:59:03;;;;;;;;;;;;;;;6.30;56.28;92600.22;5011850;28;20280;-77
2022/12/12 01:01:29;;;;;;;;;;;;;;;6.30;56.50;92610.78;5008616;28;20031;-76
2022/12/12 01:03:55;;;;;;;;;;;;;;;6.31;56.63;92604.41;5012231;28;20854;-77
2022/12/12 01:06:20;;;;;;;;;;;;;;;6.33;56.60;92602.22;5000647;28;20196;-77
2022/12/12 01:08:46;;;;;;;;;;;;;;;6.34;56.45;92609.81;5010118;28;20018;-76
2022/12/12 01:11:12;;;;;;;;;;;;;;;6.36;56.48;92610.25;5007755;28;19932;-76
2022/12/12 01:13:37;;;;;;;;;;;;;;;6.37;56.30;92601.25;5009881;28;19925;-76
2022/12/12 01:16:04;;;;;;;;;;;;;;;6.27;56.65;92598.19;5009263;28;19917;-77
2022/12/12 01:18:29;;;;;;;;;;;;;;;6.30;56.48;92594.94;5012092;28;19909;-76
2022/12/12 01:20:54;;;;;;;;;;;;;;;6.33;56.55;92591.66;5009276;28;20396;-76
2022/12/12 01:23:19;;;;;;;;;;;;;;;6.32;56.56;92593.50;5009257;28;19928;-76
2022/12/12 01:25:45;;;;;;;;;;;;;;;6.32;56.44;92588.22;5004221;28;20285;-76
2022/12/12 01:28:10;;;;;;;;;;;;;;;6.33;56.33;92594.28;5010405;28;20000;-76
2022/12/12 01:30:36;;;;;;;;;;;;;;;6.31;56.21;92597.22;5006686;28;19940;-76
2022/12/12 01:33:02;;;;;;;;;;;;;;;6.23;56.00;92590.13;5006661;28;19996;-76
2022/12/12 01:35:28;;;;;;;;;;;;;;;6.19;55.94;92609.53;5011203;28;20008;-76
2022/12/12 01:37:53;;;;;;;;;;;;;;;6.16;56.16;92612.81;5010430;28;20620;-77
2022/12/12 01:40:21;;;;;;;;;;;;;;;6.07;56.32;92622.59;5007937;28;20398;-76
2022/12/12 01:42:47;;;;;;;;;;;;;;;5.90;56.61;92612.84;5009932;28;19917;-76
2022/12/12 01:45:38;;;;;;;;;;;;;;;5.94;56.58;92619.81;5008999;28;20331;-76
2022/12/12 01:48:03;;;;;;;;;;;;;;;6.00;56.24;92618.56;4979959;28;20356;-76
2022/12/12 01:50:29;;;;;;;;;;;;;;;6.04;56.15;92617.94;5007826;28;19921;-77
2022/12/12 01:52:54;;;;;;;;;;;;;;;6.02;55.84;92616.38;5009387;28;19949;-77
2022/12/12 01:55:21;;;;;;;;;;;;;;;6.03;55.47;92619.78;5007344;28;19921;-76
2022/12/12 01:57:48;;;;;;;;;;;;;;;5.99;55.37;92617.00;5010617;28;20250;-76
2022/12/12 02:00:14;;;;;;;;;;;;;;;5.94;55.35;92619.81;5010371;28;19975;-77
2022/12/12 02:02:41;;;;;;;;;;;;;;;5.91;55.70;92624.94;5009181;28;19929;-77
2022/12/12 02:05:13;;;;;;;;;;;;;;;5.80;55.46;92637.66;4992320;28;19921;-77
2022/12/12 02:07:38;;;;;;;;;;;;;;;5.79;55.75;92644.03;5009402;28;19921;-76
2022/12/12 02:10:04;;;;;;;;;;;;;;;5.84;55.85;92635.97;5008276;28;19921;-77
2022/12/12 02:12:29;;;;;;;;;;;;;;;5.84;55.61;92635.97;5008601;28;19949;-76
2022/12/12 02:14:54;;;;;;;;;;;;;;;5.84;55.35;92641.22;5006746;28;19921;-77
2022/12/12 02:17:35;;;;;;;;;;;;;;;5.83;55.26;92650.22;5009539;28;20567;-77
2022/12/12 02:20:16;;;;;;;;;;;;;;;5.81;55.43;92641.88;5008029;28;19999;-76
2022/12/12 02:22:51;;;;;;;;;;;;;;;5.81;55.62;92641.88;5007865;28;20163;-76
2022/12/12 02:25:30;;;;;;;;;;;;;;;5.81;56.06;92636.59;5009182;28;19946;-77
2022/12/12 02:28:24;;;;;;;;;;;;;;;5.82;55.98;92640.75;5007102;28;20293;-77
2022/12/12 02:31:08;;;;;;;;;;;;;;;5.70;56.43;92637.19;5006485;28;20506;-78
2022/12/12 02:33:43;;;;;;;;;;;;;;;5.80;56.34;92635.03;5009325;28;19921;-77
2022/12/12 02:36:24;;;;;;;;;;;;;;;5.81;56.68;92641.09;5008742;28;19975;-77
2022/12/12 02:39:05;;;;;;;;;;;;;;;5.80;56.39;92640.31;4992307;28;20494;-77
2022/12/12 02:41:34;;;;;;;;;;;;;;;5.77;56.72;92643.59;5008194;28;20374;-77
2022/12/12 02:44:16;;;;;;;;;;;;;;;5.62;57.14;92651.94;5007645;28;19975;-76
2022/12/12 02:46:50;;;;;;;;;;;;;;;5.32;57.45;92645.72;5010497;28;19918;-78
2022/12/12 02:49:27;;;;;;;;;;;;;;;5.36;57.28;92635.31;5007938;28;19920;-76
2022/12/12 02:51:53;;;;;;;;;;;;;;;5.25;57.92;92637.47;5008511;28;20440;-77
2022/12/12 02:54:20;;;;;;;;;;;;;;;5.22;58.07;92627.56;5007652;28;20248;-77
2022/12/12 02:56:45;;;;;;;;;;;;;;;4.99;58.49;92634.03;5010138;28;20373;-76
2022/12/12 02:59:13;;;;;;;;;;;;;;;4.92;59.15;92626.56;5009360;28;19928;-77
2022/12/12 03:01:47;;;;;;;;;;;;;;;5.05;59.33;92630.16;5007229;28;19924;-77
2022/12/12 03:10:01;;;;;;;;;;;;;;;4.94;59.01;92634.91;5012348;28;20331;-77
2022/12/12 03:12:33;;;;;;;;;;;;;;;4.68;60.38;92631.44;5009776;28;20863;-77
2022/12/12 03:15:13;;;;;;;;;;;;;;;4.26;61.11;92635.38;5008122;28;20227;-77
2022/12/12 03:17:46;;;;;;;;;;;;;;;4.29;62.05;92634.81;5008305;28;19917;-77
2022/12/12 03:20:14;;;;;;;;;;;;;;;4.56;61.35;92639.13;5009039;28;19998;-77
2022/12/12 03:22:39;;;;;;;;;;;;;;;4.68;60.74;92647.25;5006308;28;19921;-77
2022/12/12 03:25:14;;;;;;;;;;;;;;;4.58;60.71;92640.38;5010330;28;19928;-77
2022/12/12 03:27:45;;;;;;;;;;;;;;;4.76;60.58;92640.44;5009087;28;20384;-77
2022/12/12 03:30:13;;;;;;;;;;;;;;;4.87;60.40;92639.09;5007062;28;20377;-76
2022/12/12 03:32:41;;;;;;;;;;;;;;;4.90;59.78;92641.88;5005200;28;19917;-78
2022/12/12 03:35:27;;;;;;;;;;;;;;;4.92;59.55;92647.63;5007863;28;20310;-77
2022/12/12 03:38:00;;;;;;;;;;;;;;;4.57;60.29;92641.47;5010918;28;19925;-76
2022/12/12 03:40:32;;;;;;;;;;;;;;;4.68;60.43;92652.50;5010735;28;19921;-77
2022/12/12 03:43:19;;;;;;;;;;;;;;;4.90;59.68;92654.28;5012931;28;20281;-78
2022/12/12 03:45:46;;;;;;;;;;;;;;;4.93;59.40;92669.50;5010763;28;19917;-76
2022/12/12 03:48:20;;;;;;;;;;;;;;;4.95;59.35;92654.91;5012678;28;19916;-76
2022/12/12 03:50:51;;;;;;;;;;;;;;;4.87;59.27;92668.84;5010337;28;19921;-76
2022/12/12 03:53:21;;;;;;;;;;;;;;;4.91;59.45;92675.06;5010690;28;20383;-77
2022/12/12 03:55:55;;;;;;;;;;;;;;;4.96;59.49;92674.91;5011286;28;19992;-77
2022/12/12 03:58:21;;;;;;;;;;;;;;;4.93;59.40;92678.19;5010106;28;20669;-78
2022/12/12 04:00:47;;;;;;;;;;;;;;;4.86;59.42;92672.56;5012482;28;19949;-77
2022/12/12 04:03:31;;;;;;;;;;;;;;;4.93;59.48;92669.50;5010513;28;20376;-77
2022/12/12 04:14:31;;;;;;;;;;;;;;;5.00;59.03;92675.84;5013027;28;19931;-77
2022/12/12 04:16:59;;;;;;;;;;;;;;;4.84;59.13;92669.47;5009419;28;19918;-77
2022/12/12 04:25:10;;;;;;;;;;;;;;;4.36;61.25;92698.34;5008333;28;19980;-77
2022/12/12 04:27:35;;;;;;;;;;;;;;;4.03;63.12;92703.06;5009391;28;19920;-78
2022/12/12 04:30:03;;;;;;;;;;;;;;;4.07;62.95;92711.13;5012593;28;19917;-78
2022/12/12 04:32:34;;;;;;;;;;;;;;;4.12;62.94;92714.41;5011019;28;20259;-77
2022/12/12 04:35:11;;;;;;;;;;;;;;;4.26;62.54;92709.06;4994554;28;19960;-77
2022/12/12 04:37:40;;;;;;;;;;;;;;;4.23;62.49;92715.72;4995912;28;19960;-78
2022/12/12 04:40:08;;;;;;;;;;;;;;;4.27;62.64;92700.09;5012274;28;19964;-77
2022/12/12 04:42:37;;;;;;;;;;;;;;;4.34;61.92;92702.34;5008091;28;19908;-78
2022/12/12 04:45:10;;;;;;;;;;;;;;;4.19;61.68;92698.22;5011173;28;19932;-77
2022/12/12 04:47:37;;;;;;;;;;;;;;;4.35;61.43;92701.28;5009046;28;19929;-78
2022/12/12 04:50:05;;;;;;;;;;;;;;;4.45;61.01;92701.03;5010752;28;20012;-76
2022/12/12 04:52:32;;;;;;;;;;;;;;;4.50;60.18;92690.38;5011260;28;19923;-78
2022/12/12 04:55:02;;;;;;;;;;;;;;;4.51;59.71;92691.91;5009595;28;19939;-79
2022/12/12 04:57:32;;;;;;;;;;;;;;;4.56;59.25;92686.53;5010915;28;20016;-78
2022/12/12 04:59:57;;;;;;;;;;;;;;;4.43;58.95;92690.03;5010755;28;19921;-77
2022/12/12 05:02:23;;;;;;;;;;;;;;;4.56;58.70;92689.16;4996928;28;21835;-77
2022/12/12 05:04:57;;;;;;;;;;;;;;;4.58;58.68;92694.91;5012590;28;19917;-77
2022/12/12 05:07:27;;;;;;;;;;;;;;;4.59;58.67;92704.38;5011420;28;20590;-78
2022/12/12 05:09:53;;;;;;;;;;;;;;;4.34;58.86;92695.25;5008747;28;20063;-77
2022/12/12 05:12:19;;;;;;;;;;;;;;;4.22;59.18;92714.16;5012855;28;19901;-77
2022/12/12 05:14:45;;;;;;;;;;;;;;;4.13;59.57;92688.88;5009809;28;20308;-77
2022/12/12 05:17:12;;;;;;;;;;;;;;;4.34;59.60;92705.78;5009513;28;19921;-77
2022/12/12 05:19:37;;;;;;;;;;;;;;;4.41;59.19;92711.38;5010377;28;19917;-77
2022/12/12 05:22:02;;;;;;;;;;;;;;;4.25;59.60;92703.06;5012482;28;19940;-76
2022/12/12 05:24:30;;;;;;;;;;;;;;;4.27;59.35;92711.41;5008920;28;19959;-77
2022/12/12 05:26:55;;;;;;;;;;;;;;;4.35;59.08;92715.22;5010085;28;20344;-77
2022/12/12 05:29:20;;;;;;;;;;;;;;;3.98;59.10;92650.56;5011479;28;19917;-77
2022/12/12 05:31:46;;;;;;;;;;;;;;;4.46;59.18;92713.09;5008474;28;19917;-76
2022/12/12 05:34:11;;;;;;;;;;;;;;;4.39;59.11;92723.28;5007563;28;19956;-77
2022/12/12 05:36:36;;;;;;;;;;;;;;;4.11;59.75;92706.84;5011461;28;19916;-77
2022/12/12 05:39:02;;;;;;;;;;;;;;;4.14;59.46;92700.97;5010617;28;20008;-78
2022/12/12 05:41:27;;;;;;;;;;;;;;;3.81;60.35;92708.31;5010949;28;19925;-77
2022/12/12 05:43:52;;;;;;;;;;;;;;;3.67;61.23;92739.13;5010502;28;20303;-77
2022/12/12 05:46:18;;;;;;;;;;;;;;;3.60;61.93;92713.22;5010801;28;19924;-77
2022/12/12 05:48:49;;;;;;;;;;;;;;;3.61;62.26;92741.09;5010072;28;19975;-77
2022/12/12 05:51:14;;;;;;;;;;;;;;;3.67;62.50;92733.88;5010352;28;21000;-78
2022/12/12 05:53:39;;;;;;;;;;;;;;;3.77;62.37;92731.00;5006933;28;19924;-77
2022/12/12 05:56:05;;;;;;;;;;;;;;;3.67;62.67;92715.47;5009467;28;19927;-78
2022/12/12 05:58:30;;;;;;;;;;;;;;;3.85;62.48;92719.78;5009503;28;19918;-77
2022/12/12 06:00:56;;;;;;;;;;;;;;;3.98;62.26;92712.91;5009054;28;20361;-78
2022/12/12 06:03:21;;;;;;;;;;;;;;;4.06;61.84;92720.84;5009263;28;19933;-75
2022/12/12 06:05:46;;;;;;;;;;;;;;;4.11;61.80;92704.94;5008249;28;19928;-75
2022/12/12 06:08:12;;;;;;;;;;;;;;;4.08;61.71;92720.56;5006641;28;20542;-75
2022/12/12 06:10:37;;;;;;;;;;;;;;;4.04;61.70;92723.03;5010395;28;20055;-75
2022/12/12 06:13:03;;;;;;;;;;;;;;;4.16;61.57;92720.63;5007858;28;19928;-75
2022/12/12 06:15:28;;;;;;;;;;;;;;;4.20;61.29;92732.13;5007570;28;19956;-78
2022/12/12 06:17:53;;;;;;;;;;;;;;;4.23;61.04;92744.69;5010886;28;19928;-77
2022/12/12 06:20:19;;;;;;;;;;;;;;;4.14;61.07;92759.63;5006882;28;19921;-77
2022/12/12 06:22:44;;;;;;;;;;;;;;;4.27;61.03;92760.63;5006607;28;19927;-77
2022/12/12 06:25:10;;;;;;;;;;;;;;;4.21;61.07;92752.09;4990838;28;19917;-78
2022/12/12 06:27:35;;;;;;;;;;;;;;;4.02;61.67;92759.38;5007588;28;20082;-78
2022/12/12 06:30:01;;;;;;;;;;;;;;;3.88;62.63;92752.59;4997951;28;20080;-79
2022/12/12 06:32:26;;;;;;;;;;;;;;;3.70;62.96;92759.56;5008108;28;19923;-78
2022/12/12 06:34:51;;;;;;;;;;;;;;;3.83;62.78;92759.53;5010405;28;19994;-78
2022/12/12 06:37:17;;;;;;;;;;;;;;;3.81;62.96;92781.94;5007440;28;19917;-78
2022/12/12 06:39:42;;;;;;;;;;;;;;;3.84;63.06;92782.13;5009134;28;19963;-78
2022/12/12 06:42:07;;;;;;;;;;;;;;;3.80;63.00;92780.38;5010178;28;19910;-77
2022/12/12 06:44:33;;;;;;;;;;;;;;;3.84;63.59;92786.59;5008719;28;19917;-77
2022/12/12 06:46:58;;;;;;;;;;;;;;;3.97;62.92;92774.47;5008752;28;19956;-78
2022/12/12 06:49:23;;;;;;;;;;;;;;;4.13;62.61;92781.75;5009566;28;19917;-78
2022/12/12 06:51:49;;;;;;;;;;;;;;;4.16;62.48;92778.50;4992511;28;20055;-77
2022/12/12 06:54:15;;;;;;;;;;;;;;;4.31;62.23;92780.06;5010641;28;19921;-77
2022/12/12 06:56:40;;;;;;;;;;;;;;;4.27;62.10;92773.81;5006624;28;19921;-76
2022/12/12 06:59:06;;;;;;;;;;;;;;;4.44;61.55;92788.97;5007868;28;19933;-76
2022/12/12 07:01:31;;;;;;;;;;;;;;;4.40;61.51;92793.31;5006832;28;19922;-78
2022/12/12 07:03:57;;;;;;;;;;;;;;;4.38;62.05;92806.75;5005272;28;20403;-77
2022/12/12 07:06:23;;;;;;;;;;;;;;;4.50;61.89;92804.34;5007342;28;19917;-77
2022/12/12 07:08:48;;;;;;;;;;;;;;;4.50;61.87;92803.59;5008603;28;20020;-77
2022/12/12 07:11:15;;;;;;;;;;;;;;;4.60;61.72;92792.81;5009516;28;21078;-77
2022/12/12 07:13:40;;;;;;;;;;;;;;;4.61;61.60;92797.78;5013051;28;19975;-77
2022/12/12 07:16:06;;;;;;;;;;;;;;;4.66;61.18;92799.50;5012557;28;20396;-77
2022/12/12 07:18:32;;;;;;;;;;;;;;;4.72;61.00;92787.78;5012872;28;19913;-77
2022/12/12 07:20:57;;;;;;;;;;;;;;;4.73;61.40;92801.72;5011411;28;20080;-77
2022/12/12 07:23:22;;;;;;;;;;;;;;;4.81;60.95;92812.31;5008198;28;20286;-77
2022/12/12 07:25:47;;;;;;;;;;;;;;;4.68;60.65;92831.59;5012318;28;19979;-77
2022/12/12 07:28:13;;;;;;;;;;;;;;;4.85;60.79;92825.66;5011868;28;20028;-77
2022/12/12 07:30:39;;;;;;;;;;;;;;;4.91;60.81;92827.88;5011840;28;20010;-78
2022/12/12 07:33:05;;;;;;;;;;;;;;;4.96;60.75;92830.38;5013846;28;20305;-77
2022/12/12 07:35:30;;;;;;;;;;;;;;;5.02;60.75;92837.06;5011605;28;20804;-78
2022/12/12 07:37:55;;;;;;;;;;;;;;;5.08;60.56;92846.44;5009720;28;19978;-77
2022/12/12 07:40:21;;;;;;;;;;;;;;;5.09;60.13;92863.78;5013032;28;19923;-77
2022/12/12 07:42:47;;;;;;;;;;;;;;;5.18;59.90;92858.56;5009715;28;19920;-78
2022/12/12 07:45:13;;;;;;;;;;;;;;;5.21;59.73;92854.53;5010171;28;20460;-78
2022/12/12 07:47:38;;;;;;;;;;;;;;;5.16;59.54;92858.09;5009132;28;19927;-78
2022/12/12 07:50:03;;;;;;;;;;;;;;;5.15;59.36;92853.88;5008568;28;19952;-77
2022/12/12 07:52:29;;;;;;;;;;;;;;;5.20;59.83;92851.13;5010290;28;19921;-77
2022/12/12 07:54:54;;;;;;;;;;;;;;;5.18;59.23;92855.94;5009024;28;19936;-78
2022/12/12 07:57:19;;;;;;;;;;;;;;;5.20;59.21;92868.78;5011121;28;19917;-78
2022/12/12 07:59:44;;;;;;;;;;;;;;;5.29;59.10;92877.53;5009318;28;19916;-77
2022/12/12 08:02:10;;;;;;;;;;;;;;;5.37;59.18;92882.84;4985308;28;19938;-77
2022/12/12 08:04:35;;;;;;;;;;;;;;;5.23;59.78;92884.03;4989332;28;20352;-76
2022/12/12 08:07:02;;;;;;;;;;;;;;;5.24;59.83;92886.34;4987819;28;19926;-77
2022/12/12 08:09:27;;;;;;;;;;;;;;;5.37;59.73;92876.81;4988348;28;20013;-76
2022/12/12 08:11:57;;;;;;;;;;;;;;;5.44;59.37;92887.69;4992955;28;20031;-75
2022/12/12 08:14:22;;;;;;;;;;;;;;;5.51;59.35;92880.91;4978579;28;19979;-76
2022/12/12 08:16:47;;;;;;;;;;;;;;;5.54;59.47;92884.78;4987607;28;20345;-76
2022/12/12 08:20:08;;;;;;;;;;;;;;;5.52;59.96;92893.03;5061299;27;19932;-77
2022/12/12 08:22:34;;;;;;;;;;;;;;;5.55;60.16;92897.69;5045878;28;20760;-77
2022/12/12 08:24:59;;;;;;;;;;;;;;;5.60;60.19;92891.50;5046211;28;19925;-76
2022/12/12 08:27:24;;;;;;;;;;;;;;;5.49;59.83;92903.38;5038135;28;19921;-77
2022/12/12 08:29:53;;;;;;;;;;;;;;;5.54;59.83;92897.97;5042409;28;19936;-76
2022/12/12 08:32:19;;;;;;;;;;;;;;;5.62;60.13;92905.16;5042148;28;20460;-77
2022/12/12 08:34:44;;;;;;;;;;;;;;;5.59;60.08;92908.38;5043498;28;20683;-77
2022/12/12 08:37:09;;;;;;;;;;;;;;;5.39;61.40;92904.41;5040300;28;19972;-76
2022/12/12 08:39:35;;;;;;;;;;;;;;;5.48;61.31;92913.13;5044980;28;20729;-76
2022/12/12 08:42:01;;;;;;;;;;;;;;;5.60;60.88;92909.16;5046134;28;20444;-77
2022/12/12 08:44:26;;;;;;;;;;;;;;;5.66;60.16;92913.25;5039457;28;19924;-77
2022/12/12 08:49:07;;;;;;;;;;;;;;;5.71;60.53;92907.84;5052697;27;19933;-77
2022/12/12 08:51:33;;;;;;;;;;;;;;;5.52;60.21;92900.16;5045472;28;19942;-78
2022/12/12 08:53:58;;;;;;;;;;;;;;;5.61;59.66;92905.47;5043238;28;19931;-78
2022/12/12 08:56:23;;;;;;;;;;;;;;;5.59;59.88;92903.13;5045194;28;19925;-77
2022/12/12 08:58:49;;;;;;;;;;;;;;;5.70;59.64;92899.13;5043398;28;19932;-77
2022/12/12 09:01:16;;;;;;;;;;;;;;;5.81;59.74;92897.78;5072316;28;20539;-77
2022/12/12 09:03:41;;;;;;;;;;;;;;;5.84;59.68;92901.66;5047609;28;19995;-76
2022/12/12 09:06:07;;;;;;;;;;;;;;;5.91;59.68;92888.81;5044554;28;19913;-78
2022/12/12 09:28:20;;;;;;;67.05;33.90;;;;;;;18.15;54.65;92837.16;4973868;27;1494667;-68
2022/12/12 09:31:42;;;;;;;23.27;14.40;;;;;;;18.88;55.00;92832.91;4888630;27;4478573;-67
2022/12/12 09:34:08;;;;;;;25.25;10.95;;;;;;;18.75;54.94;92829.09;5024872;28;20510;-68
2022/12/12 09:36:34;;;;;;;12.07;8.65;;;;;;;18.77;52.89;92826.75;5028116;28;20045;-70
2022/12/12 09:39:04;;;;;;;12.27;8.05;;;;;;;18.78;52.51;92825.59;5031911;28;20026;-68
2022/12/12 09:41:32;;;;;;;9.13;7.75;;;;;;;18.86;52.21;92826.38;5044273;28;20041;-68
2022/12/12 09:44:07;;;;;;;13.18;8.52;;;;;;;18.92;51.92;92818.66;5045343;28;20976;-69
2022/12/12 09:46:38;;;;;;;16.48;7.47;;;;;;;18.99;51.60;92824.03;5042892;28;20517;-67
2022/12/12 09:49:15;;;;;;;15.15;7.97;;;;;;;18.97;51.67;92815.59;5029061;28;20033;-69
2022/12/12 09:51:52;;;;;;;10.68;7.45;;;;;;;18.98;51.43;92828.63;5024038;28;20017;-69
2022/12/12 09:54:42;;;;;;;12.90;7.50;;;;;;;18.98;51.44;92817.09;4999728;28;20029;-66
2022/12/12 09:57:10;;;;;;;8.95;7.75;;;;;;;19.00;51.64;92822.88;5018649;28;20030;-66
2022/12/12 09:59:56;;;;;;;13.90;8.80;;;;;;;19.03;51.21;92822.09;5005579;28;20044;-68
2022/12/12 10:02:40;;;;;;;9.93;8.70;;;;;;;19.06;50.97;92824.00;5025314;28;20045;-66
2022/12/12 10:05:33;;;;;;;10.17;7.60;;;;;;;19.11;50.78;92815.53;5043721;28;20038;-69
2022/12/12 10:08:26;;;;;;;8.43;7.15;;;;;;;19.09;50.73;92815.91;5025349;28;20628;-68
2022/12/12 10:11:03;;;;;;;9.45;7.55;;;;;;;19.06;52.33;92813.25;5018935;28;20577;-69
2022/12/12 10:16:04;;;;;;;32.53;25.00;;;;;;;16.56;35.23;92831.16;5049518;27;20523;-74
2022/12/12 10:18:44;;;;;;;26.95;22.05;;;;;;;14.80;36.96;92833.56;4998466;28;20344;-74
2022/12/12 10:21:26;;;;;;;24.63;19.10;;;;;;;12.77;40.73;92836.53;5027626;28;20037;-75
2022/12/12 10:24:35;;;;;;;23.30;17.35;;;;;;;11.29;43.59;92833.75;5020844;28;20521;-75
2022/12/12 10:27:08;;;;;;;24.48;18.98;;;;;;;10.07;47.61;92823.41;5018795;28;20041;-75
2022/12/12 10:29:34;;;;;;;34.25;24.60;;;;;;;7.89;52.01;92828.66;5022117;28;20046;-75
2022/12/12 10:32:16;;;;;;;36.85;24.55;;;;;;;7.07;55.51;92829.09;5016396;28;20401;-75
2022/12/12 10:34:53;;;;;;;40.00;25.75;;;;;;;6.26;58.09;92813.16;5019462;28;20073;-75
2022/12/12 10:37:52;;;;;;;33.22;23.60;;;;;;;5.93;61.04;92818.03;5019436;28;20057;-75
2022/12/12 10:40:38;;;;;;;38.17;26.20;;;;;;;5.20;65.71;92811.59;5021012;28;20109;-76
2022/12/12 10:43:10;;;;;;;32.25;22.38;;;;;;;4.62;68.97;92796.69;5029269;28;20071;-75
2022/12/12 10:45:53;;;;;;;35.78;22.77;;;;;;;4.24;70.57;92790.97;5022972;28;20140;-75
2022/12/12 10:48:19;;;;;;;60.53;30.40;;;;;;;4.30;70.42;92788.25;5025771;28;20442;-77
2022/12/12 10:50:55;;;;;;;47.70;29.73;;;;;;;4.20;72.21;92808.44;5021965;28;20041;-76
2022/12/12 10:53:21;;;;;;;44.15;28.63;;;;;;;3.95;72.18;92803.72;5018506;28;20033;-77
2022/12/12 10:55:55;;;;;;;66.65;39.90;;;;;;;4.56;70.73;92818.19;5017657;28;20073;-74
2022/12/12 10:58:25;;;;;;;46.00;28.58;;;;;;;4.69;69.94;92809.44;5015241;28;20399;-76
2022/12/12 11:00:58;;;;;;;43.15;27.92;;;;;;;5.13;69.33;92813.88;5001962;28;20484;-76
2022/12/12 11:03:38;;;;;;;42.15;25.98;;;;;;;4.90;69.84;92813.13;4989182;28;20026;-76
2022/12/12 11:06:10;;;;;;;40.63;25.90;;;;;;;5.24;68.75;92823.06;5006894;28;20500;-77
2022/12/12 11:08:36;;;;;;;36.22;24.67;;;;;;;5.65;67.16;92816.72;5008938;28;20030;-77
2022/12/12 11:11:18;;;;;;;37.10;24.35;;;;;;;4.49;69.63;92794.13;5010747;28;20080;-77
2022/12/12 11:13:49;;;;;;;40.75;26.33;;;;;;;3.79;71.07;92778.81;5006499;28;20253;-76
2022/12/12 11:16:21;;;;;;;43.40;26.98;;;;;;;4.27;71.34;92824.59;5011385;28;20041;-77
2022/12/12 11:19:20;;;;;;;41.90;28.23;;;;;;;4.75;70.19;92813.50;5008596;28;20038;-76
2022/12/12 11:21:46;;;;;;;49.17;29.45;;;;;;;5.19;69.65;92809.28;5005764;28;20045;-76
2022/12/12 11:24:17;;;;;;;48.97;29.67;;;;;;;4.62;70.47;92816.97;5009123;28;20153;-76
2022/12/12 11:26:57;;;;;;;47.50;30.75;;;;;;;4.87;70.61;92813.75;4997627;28;20749;-77
2022/12/12 11:29:45;;;;;;;47.92;27.38;;;;;;;5.01;68.21;92772.28;4995296;28;20022;-77
2022/12/12 11:32:16;;;;;;;41.55;27.02;;;;;;;4.68;69.93;92789.47;4993381;28;20042;-76
2022/12/12 11:34:49;;;;;;;41.38;27.10;;;;;;;4.69;68.46;92783.91;4995858;28;20046;-76
2022/12/12 11:37:18;;;;;;;41.58;27.75;;;;;;;5.10;68.15;92796.81;4991706;28;20034;-76
2022/12/12 11:39:47;;;;;;;45.00;26.58;;;;;;;5.69;65.40;92786.78;4996083;28;20073;-75
2022/12/12 11:42:12;;;;;;;38.67;26.20;;;;;;;5.81;65.54;92786.97;4995705;28;20045;-75
2022/12/12 11:44:39;;;;;;;44.10;28.20;;;;;;;5.78;65.26;92778.88;4994339;28;20030;-77
2022/12/12 11:47:25;;;;;;;44.92;29.38;;;;;;;5.88;64.44;92795.19;4994578;28;20030;-77
2022/12/12 11:49:54;;;;;;;44.70;29.30;;;;;;;5.86;63.95;92771.00;4994350;28;20374;-76
2022/12/12 11:52:28;;;;;;;52.88;36.70;;;;;;;5.35;67.13;92791.94;4989184;28;20038;-75
2022/12/12 11:54:55;;;;;;;69.40;41.17;;;;;;;5.45;68.37;92765.31;4995965;28;20073;-77
2022/12/12 11:57:26;;;;;;;49.55;33.00;;;;;;;5.78;66.57;92779.66;4992864;28;20173;-76
2022/12/12 11:59:57;;;;;;;60.20;36.15;;;;;;;5.70;66.98;92785.69;4993955;28;20046;-76
2022/12/12 12:03:00;;;;;;;54.83;35.13;;;;;;;6.09;66.04;92778.78;4996076;28;20433;-76
2022/12/12 12:05:40;;;;;;;57.20;38.70;;;;;;;6.25;64.67;92766.72;4969698;28;20548;-77
2022/12/12 12:08:38;;;;;;;52.53;38.00;;;;;;;6.35;64.52;92769.03;4971641;28;20281;-76
2022/12/12 12:11:07;;;;;;;58.85;39.55;;;;;;;6.47;63.53;92773.69;4976269;28;20878;-76
2022/12/12 12:13:51;;;;;;;71.05;43.67;;;;;;;6.59;63.49;92769.34;4987368;28;20053;-76
2022/12/12 12:16:30;;;;;;;58.55;40.70;;;;;;;6.45;63.60;92760.81;4990227;28;20049;-76
2022/12/12 12:19:13;;;;;;;70.28;43.58;;;;;;;6.17;64.51;92754.25;4992505;28;20046;-76
2022/12/12 12:21:44;;;;;;;77.93;49.17;;;;;;;6.38;64.48;92755.19;5006092;28;20034;-76
2022/12/12 12:24:19;;;;;;;70.68;45.50;;;;;;;6.73;62.71;92764.63;4985314;28;20045;-76
2022/12/12 12:26:53;;;;;;;57.92;41.70;;;;;;;6.73;61.84;92753.28;4986991;28;20040;-75
2022/12/12 12:29:37;;;;;;;93.68;59.70;;;;;;;6.42;61.89;92729.72;4989194;28;20026;-76
2022/12/12 12:32:19;;;;;;;61.40;41.67;;;;;;;6.52;61.95;92741.81;4976499;28;20053;-77
2022/12/12 12:34:48;;;;;;;70.82;44.20;;;;;;;6.66;61.34;92735.28;4990547;28;20033;-75
2022/12/12 12:37:32;;;;;;;63.55;41.95;;;;;;;5.76;64.10;92725.66;4994030;28;20042;-76
2022/12/12 12:40:06;;;;;;;60.40;41.35;;;;;;;5.92;65.67;92739.97;4989972;28;20030;-76
2022/12/12 12:42:46;;;;;;;63.55;42.08;;;;;;;6.37;64.83;92740.44;4995148;28;20073;-76
2022/12/12 12:45:19;;;;;;;68.43;48.08;;;;;;;6.22;64.92;92725.06;4995377;28;20649;-76
2022/12/12 12:47:56;;;;;;;105.18;84.40;;;;;;;5.68;65.98;92745.66;4991897;28;20401;-75
2022/12/12 12:50:30;;;;;;;74.18;50.03;;;;;;;5.76;67.29;92755.47;4992233;28;20036;-76
2022/12/12 12:53:04;;;;;;;63.63;43.63;;;;;;;6.14;65.09;92749.59;4992857;28;20579;-75
2022/12/12 12:55:37;;;;;;;66.22;41.35;;;;;;;5.75;65.98;92748.63;4993642;28;20053;-76
2022/12/12 12:58:04;;;;;;;65.53;44.22;;;;;;;5.30;67.77;92736.72;4987559;28;20046;-76
2022/12/12 13:00:30;;;;;;;75.30;49.92;;;;;;;5.24;69.30;92730.03;4993289;28;20038;-76
2022/12/12 13:03:13;;;;;;;67.97;45.15;;;;;;;5.14;69.52;92750.31;4992810;28;20047;-76
2022/12/12 13:05:44;;;;;;;73.30;46.50;;;;;;;5.25;69.24;92745.53;4991171;28;20723;-76
2022/12/12 13:08:45;;;;;;;69.90;44.45;;;;;;;5.83;67.59;92745.22;4992902;28;20058;-75
2022/12/12 13:11:19;;;;;;;62.10;44.35;;;;;;;5.93;66.25;92702.69;4974263;28;20041;-77
2022/12/12 13:13:47;;;;;;;67.68;45.22;;;;;;;6.17;65.34;92743.69;4990904;28;20052;-76
2022/12/12 13:16:17;;;;;;;71.22;45.97;;;;;;;6.30;65.25;92751.50;4974258;28;20041;-76
2022/12/12 13:18:47;;;;;;;79.85;50.33;;;;;;;6.41;63.86;92746.66;4985372;28;20026;-76
2022/12/12 13:21:35;;;;;;;72.78;47.08;;;;;;;5.74;66.08;92754.19;4990813;28;20556;-76
2022/12/12 13:24:21;;;;;;;69.05;44.53;;;;;;;5.61;67.88;92750.63;4995942;28;20038;-76
2022/12/12 13:26:57;;;;;;;65.88;45.10;;;;;;;5.65;66.53;92746.28;4993214;28;20496;-76